• Join FlightAware (Why Join?)
  • Login
  • US Flag 
04:38PM EDT


 

Airport Tracker/Info


-or-


 

Live Flight TrackerFlight Track Log ✈ UAL4853 ✈ 02-May-2013 ✈ KCLE - KMDT

Flight Track Log - Related Links

Times and Time Zones

All times are in EDT time to prevent confusion due to time zone crossing. See the UAL4853 flight status page for this flight to view local times or setup timezone preferences in your user account.

Time Position Orientation Groundspeed Altitude Reporting Facility
EDT Latitude Longitude Course Direction KTS MPH feet Rate Location/Type
08:30PM 41.4172 -81.8375 83° East 153 176 1,500  Level Cleveland Center
08:31PM 41.4197 -81.8097 83° East 129 148 2,100 1,020 Climbing Cleveland Center
08:32PM 41.3994 -81.7678 123° Southeast 149 171 3,200 1,080 Climbing Cleveland Center
08:32PM 41.3769 -81.7233 124° Southeast 177 204 4,200 960 Climbing Cleveland Center
08:33PM 41.3564 -81.6786 121° Southeast 171 197 5,100 900 Climbing Cleveland Center
08:34PM 41.3258 -81.6228 126° Southeast 181 208 6,000 900 Climbing Cleveland Center
08:35PM 41.2928 -81.5586 124° Southeast 186 214 7,000 1,020 Climbing Cleveland Center
08:36PM 41.2622 -81.5003 125° Southeast 191 220 8,100 960 Climbing Cleveland Center
08:37PM 41.2292 -81.4361 124° Southeast 196 226 9,000 900 Climbing Cleveland Center
08:38PM 41.1983 -81.3806 126° Southeast 196 226 10,000 840 Climbing Cleveland Center
08:39PM 41.1675 -81.3167 123° Southeast 196 226 10,700 720 Climbing Cleveland Center
08:40PM 41.1367 -81.2558 124° Southeast 201 231 11,500 840 Climbing Cleveland Center
08:41PM 41.1100 -81.1922 119° Southeast 201 231 12,400 840 Climbing Cleveland Center
08:42PM 41.0978 -81.1175 102° East 201 231 13,200 720 Climbing Cleveland Center
08:43PM 41.0856 -81.0431 102° East 201 231 13,900 720 Climbing Cleveland Center
08:44PM 41.0733 -80.9686 102° East 207 238 14,700 720 Climbing Cleveland Center
08:45PM 41.0611 -80.8969 103° East 202 232 15,400 600 Climbing Cleveland Center
08:46PM 41.0467 -80.8225 104° East 202 232 15,900 540 Climbing Cleveland Center
08:47PM 41.0342 -80.7511 103° East 202 232 16,500 600 Climbing Cleveland Center
08:48PM 41.0219 -80.6739 102° East 202 232 17,200 600 Climbing Cleveland Center
08:49PM 41.0053 -80.5997 107° East 202 232 17,700 360 Climbing Cleveland Center
08:50PM 40.9928 -80.5225 102° East 202 232 18,000 360 Climbing Cleveland Center
08:51PM 40.9803 -80.4483 103° East 202 232 18,500 540 Climbing Cleveland Center
08:52PM 40.9656 -80.3714 104° East 202 232 19,100 540 Climbing Cleveland Center
08:53PM 40.9506 -80.2944 104° East 202 232 19,600 480 Climbing Cleveland Center
08:54PM 40.9358 -80.2175 104° East 202 232 20,100 420 Climbing Cleveland Center
08:55PM 40.9211 -80.1406 104° East 207 238 20,500 300 Climbing Cleveland Center
08:56PM 40.9061 -80.0611 104° East 207 238 20,800 240 Climbing Cleveland Center
08:57PM 40.8911 -79.9817 104° East 213 245 21,000 60 Climbing Cleveland Center
08:58PM 40.8761 -79.8939 103° East 225 259 21,000  Level Cleveland Center
08:59PM 40.8589 -79.8033 104° East 236 272 21,000  Level Cleveland Center
09:00PM 40.8414 -79.7131 104° East 247 284 21,000  Level Cleveland Center
09:01PM 40.8242 -79.6228 104° East 252 290 21,000  Level Cleveland Center
09:02PM 40.8067 -79.5297 104° East 252 290 21,000  Level Cleveland Center
09:03PM 40.7933 -79.4614 104° East 252 290 21,000  Level Cleveland Center
09:04PM 40.7736 -79.3603 104° East 252 290 21,000  Level Cleveland Center
09:05PM 40.7581 -79.2700 103° East 252 290 21,000  Level Cleveland Center
09:06PM 40.7403 -79.1772 104° East 252 290 21,000  Level Cleveland Center
09:07PM 40.7225 -79.0872 105° East 258 297 21,000  Level Cleveland Center
09:08PM 40.7044 -78.9972 105° East 258 297 21,000  Level Cleveland Center
09:09PM 40.6822 -78.8992 107° East 258 297 21,000  Level Cleveland Center
09:10PM 40.6622 -78.8094 106° East 258 297 21,000 -300 Level Cleveland Center
09:11PM 40.6439 -78.7169 105° East 258 297 20,500 -780 Descending Cleveland Center
09:12PM 40.6236 -78.6161 105° East 263 303 19,500 -1,020 Descending Cleveland Center
09:13PM 40.6008 -78.5103 106° East 280 322 18,500 -900 Descending Cleveland Center
09:14PM 40.5822 -78.4042 103° East 286 329 17,800 -1,020 Descending Cleveland Center
09:15PM 40.5692 -78.3425 106° East 291 335 16,900 -1,560 Descending New York Center
09:16PM 40.5486 -78.2392 105° East 313 360 15,400 -1,560 Descending New York Center
09:17PM 40.5278 -78.1386 105° East 302 348 13,900 -1,500 Descending New York Center
09:18PM 40.5089 -78.0408 104° East 284 327 12,400 -1,260 Descending New York Center
09:19PM 40.4897 -77.9433 104° East 279 321 11,400 -720 Descending New York Center
09:20PM 40.4681 -77.8511 107° East 273 314 11,000 -240 Descending New York Center
09:21PM 40.4486 -77.7617 106° East 267 307 11,000  Level New York Center
09:22PM 40.4308 -77.6697 104° East 262 302 11,000  Level New York Center
09:23PM 40.4128 -77.5864 106° East 246 283 11,000  Level New York Center
09:24PM 40.3964 -77.5083 105° East 246 283 11,000 -420 Level New York Center
09:25PM 40.3750 -77.4108 106° East 246 283 10,200 -1,200 Descending New York Center
09:26PM 40.3569 -77.3219 105° East 251 289 8,600 -1,620 Descending New York Center
09:27PM 40.3367 -77.2356 107° East 246 283 7,100 -1,620 Descending New York Center
09:28PM 40.3206 -77.1497 104° East 246 283 5,400 -1,380 Descending New York Center
09:29PM 40.3061 -77.0692 103° East 239 275 4,400 -900 Descending New York Center
09:30PM 40.2828 -76.9992 114° Southeast 220 253 3,600 -780 Descending New York Center
09:31PM 40.2550 -76.9286 117° Southeast 212 244 2,900 -480 Descending New York Center
09:32PM 40.2333 -76.8669 115° Southeast 212 244 2,700 3,060 Descending New York Center
09:33PM 40.2056 -76.7964 117° Southeast 212 244 9,000 3,060 Climbing New York Center
09:34PM 40.1778 -76.7261 117° Southeast 212 244 9,000  Level New York Center
09:35PM 40.1503 -76.6558 117° Southeast 212 244 9,000  Level New York Center
09:36PM 40.1447 -76.6419 118° Southeast 212 244 9,000  Level New York Center
09:37PM 40.1447 -76.6419 303° West 212 244 9,000  Level New York Center
09:40PM 40.1677 -76.7134 299° West  Level FlightAware Approximate
09:47PM 40.1833 -76.7500 299° West  Level FlightAware Approximate
09:48PM 40.1932 -76.7626 299° West  Level Estimated
09:49PM 40.1932 -76.7626 299° West  Level Estimated
09:50PM 40.1932 -76.7626 299° West  Level Estimated
09:51PM 40.1932 -76.7626 299° West  Level Estimated
09:52PM 40.1932 -76.7626 299° West  Level Estimated
09:53PM 40.1932 -76.7626 299° West  Level Estimated